TimePDT,TemperatureF,Dew PointF,Humidity,Sea Level PressureIn,VisibilityMPH,Wind Direction,Wind SpeedMPH,Gust SpeedMPH,PrecipitationIn,Events,Conditions,WindDirDegrees,DateUTC
12:53 AM,52.0,51.1,97,30.07,9.0,Calm,Calm,-,N/A,,Overcast,0,2011-10-07 07:53:00
1:53 AM,52.0,50.0,93,30.07,9.0,Calm,Calm,-,0.00,Rain,Light Rain,0,2011-10-07 08:53:00
2:00 AM,-9999,-9999,N/A,-9999,-9999.0,North,-9999.0,-,N/A,,Unknown,0,2011-10-07 09:00:00
2:24 AM,51.8,51.8,100,30.08,9.0,Calm,Calm,-,0.01,Rain,Light Rain,0,2011-10-07 09:24:00
2:53 AM,52.0,51.1,97,30.08,3.0,Calm,Calm,-,0.03,Rain,Light Rain,0,2011-10-07 09:53:00
3:00 AM,-9999,-9999,N/A,-9999,-9999.0,North,-9999.0,-,N/A,,Unknown,0,2011-10-07 10:00:00
3:23 AM,51.8,51.8,100,30.07,3.0,Calm,Calm,-,0.01,Rain,Light Rain,0,2011-10-07 10:23:00
3:53 AM,52.0,51.1,97,30.07,7.0,South,3.5,-,0.01,,Overcast,180,2011-10-07 10:53:00
3:56 AM,51.8,51.8,100,30.07,8.0,South,3.5,-,N/A,,Overcast,190,2011-10-07 10:56:00
4:39 AM,51.8,51.8,100,30.07,8.0,Calm,Calm,-,N/A,,Overcast,0,2011-10-07 11:39:00
4:53 AM,52.0,51.1,97,30.07,10.0,Calm,Calm,-,N/A,,Overcast,0,2011-10-07 11:53:00
5:22 AM,51.8,51.8,100,30.08,8.0,Calm,Calm,-,0.00,,Overcast,0,2011-10-07 12:22:00
5:40 AM,51.8,51.8,100,30.08,2.5,SE,3.5,-,0.00,,Overcast,140,2011-10-07 12:40:00
5:53 AM,51.1,51.1,100,30.08,2.5,Calm,Calm,-,0.00,,Overcast,0,2011-10-07 12:53:00
5:59 AM,51.8,51.8,100,30.08,2.5,Calm,Calm,-,N/A,,Overcast,0,2011-10-07 12:59:00
6:00 AM,-9999,-9999,N/A,-9999,-9999.0,North,-9999.0,-,N/A,,Unknown,0,2011-10-07 13:00:00
6:20 AM,51.8,51.8,100,30.08,3.0,Calm,Calm,-,0.01,,Overcast,0,2011-10-07 13:20:00
6:32 AM,51.8,51.8,100,30.08,6.0,Calm,Calm,-,0.01,,Overcast,0,2011-10-07 13:32:00
6:39 AM,51.8,51.8,100,30.08,7.0,Calm,Calm,-,0.01,,Overcast,0,2011-10-07 13:39:00
6:43 AM,51.8,51.8,100,30.08,7.0,ESE,3.5,-,0.01,,Overcast,120,2011-10-07 13:43:00
6:53 AM,51.1,51.1,100,30.09,4.0,Calm,Calm,-,0.01,Rain,Light Rain,0,2011-10-07 13:53:00
7:04 AM,51.8,51.8,100,30.08,3.0,Calm,Calm,-,0.00,,Overcast,0,2011-10-07 14:04:00
7:11 AM,51.8,51.8,100,30.08,2.5,Calm,Calm,-,0.00,,Overcast,0,2011-10-07 14:11:00
7:21 AM,51.8,51.8,100,30.08,3.0,Calm,Calm,-,0.00,,Overcast,0,2011-10-07 14:21:00
7:49 AM,51.8,51.8,100,30.09,3.0,Calm,Calm,-,0.00,,Overcast,0,2011-10-07 14:49:00
7:53 AM,51.1,51.1,100,30.09,2.5,Calm,Calm,-,0.00,,Overcast,0,2011-10-07 14:53:00
8:03 AM,51.8,51.8,100,30.09,1.8,Calm,Calm,-,N/A,,Overcast,0,2011-10-07 15:03:00
8:11 AM,51.8,51.8,100,30.10,3.0,Calm,Calm,-,N/A,,Overcast,0,2011-10-07 15:11:00
8:53 AM,52.0,51.1,97,30.11,10.0,Calm,Calm,-,N/A,,Overcast,0,2011-10-07 15:53:00
9:49 AM,53.6,51.8,94,30.11,10.0,Calm,Calm,-,N/A,,Overcast,0,2011-10-07 16:49:00
9:53 AM,54.0,52.0,93,30.12,10.0,Calm,Calm,-,N/A,,Overcast,0,2011-10-07 16:53:00
10:33 AM,55.4,51.8,88,30.12,10.0,Calm,Calm,-,N/A,,Overcast,0,2011-10-07 17:33:00
10:46 AM,55.4,51.8,88,30.13,10.0,Calm,Calm,-,N/A,,Overcast,0,2011-10-07 17:46:00
10:53 AM,55.9,52.0,87,30.13,10.0,Calm,Calm,-,N/A,,Overcast,0,2011-10-07 17:53:00
11:09 AM,55.4,53.6,94,30.13,10.0,South,3.5,-,N/A,,Overcast,190,2011-10-07 18:09:00
11:53 AM,57.0,52.0,83,30.14,10.0,Calm,Calm,-,N/A,,Overcast,0,2011-10-07 18:53:00
12:02 PM,57.2,51.8,82,30.14,10.0,Variable,3.5,-,N/A,,Overcast,0,2011-10-07 19:02:00
12:23 PM,55.4,53.6,94,30.15,9.0,Calm,Calm,-,N/A,,Overcast,0,2011-10-07 19:23:00
12:53 PM,57.9,52.0,81,30.16,10.0,Calm,Calm,-,N/A,,Overcast,0,2011-10-07 19:53:00
1:23 PM,57.2,53.6,88,30.16,10.0,WSW,4.6,-,N/A,,Overcast,240,2011-10-07 20:23:00
1:53 PM,57.9,52.0,81,30.16,10.0,Calm,Calm,-,N/A,,Overcast,0,2011-10-07 20:53:00
2:12 PM,59.0,51.8,77,30.16,10.0,Calm,Calm,-,N/A,,Overcast,0,2011-10-07 21:12:00
2:35 PM,57.2,53.6,88,30.16,9.0,NNW,3.5,-,0.00,Rain,Light Rain,330,2011-10-07 21:35:00
2:48 PM,57.2,53.6,88,30.16,10.0,WNW,4.6,-,0.00,,Mostly Cloudy,300,2011-10-07 21:48:00
2:53 PM,57.0,53.1,87,30.17,10.0,NW,4.6,-,0.00,,Mostly Cloudy,320,2011-10-07 21:53:00
3:26 PM,59.0,51.8,77,30.16,10.0,Calm,Calm,-,N/A,,Mostly Cloudy,0,2011-10-07 22:26:00
3:50 PM,57.2,51.8,82,30.16,10.0,NNE,3.5,-,N/A,,Scattered Clouds,30,2011-10-07 22:50:00
3:53 PM,57.0,52.0,83,30.17,10.0,Calm,Calm,-,N/A,,Scattered Clouds,0,2011-10-07 22:53:00
4:53 PM,60.1,53.1,78,30.16,10.0,NW,6.9,-,N/A,,Mostly Cloudy,310,2011-10-07 23:53:00
5:25 PM,57.2,51.8,82,30.17,9.0,WNW,6.9,-,N/A,,Scattered Clouds,300,2011-10-08 00:25:00
5:53 PM,57.0,51.1,81,30.17,10.0,NNW,5.8,-,N/A,,Clear,340,2011-10-08 00:53:00
6:53 PM,52.0,50.0,93,30.19,10.0,NNW,3.5,-,N/A,,Clear,330,2011-10-08 01:53:00
7:53 PM,50.0,48.0,93,30.19,10.0,Calm,Calm,-,N/A,,Clear,0,2011-10-08 02:53:00
8:53 PM,46.9,46.0,97,30.20,5.0,Calm,Calm,-,N/A,,Clear,0,2011-10-08 03:53:00
8:59 PM,46.4,44.6,93,30.20,1.5,Calm,Calm,-,N/A,,Clear,0,2011-10-08 03:59:00
9:01 PM,46.4,44.6,93,30.20,0.8,Calm,Calm,-,N/A,,Clear,0,2011-10-08 04:01:00
9:21 PM,44.6,44.6,100,30.20,1.5,Calm,Calm,-,N/A,,Clear,0,2011-10-08 04:21:00
9:30 PM,44.6,44.6,100,30.20,2.0,Calm,Calm,-,N/A,,Clear,0,2011-10-08 04:30:00
9:35 PM,44.6,44.6,100,30.20,1.2,Calm,Calm,-,N/A,,Clear,0,2011-10-08 04:35:00
9:38 PM,44.6,44.6,100,30.20,2.0,Calm,Calm,-,N/A,,Clear,0,2011-10-08 04:38:00
9:42 PM,46.4,44.6,93,30.20,1.2,Calm,Calm,-,N/A,,Clear,0,2011-10-08 04:42:00
9:53 PM,45.0,44.1,97,30.21,0.5,Calm,Calm,-,N/A,Fog,Fog,0,2011-10-08 04:53:00
10:02 PM,44.6,42.8,93,30.21,1.8,Calm,Calm,-,N/A,,Clear,0,2011-10-08 05:02:00
10:04 PM,44.6,42.8,93,30.21,3.0,Calm,Calm,-,N/A,,Clear,0,2011-10-08 05:04:00
10:06 PM,44.6,42.8,93,30.21,1.8,Calm,Calm,-,N/A,,Clear,0,2011-10-08 05:06:00
10:13 PM,44.6,44.6,100,30.21,0.8,Calm,Calm,-,N/A,,Clear,0,2011-10-08 05:13:00
10:23 PM,44.6,42.8,93,30.21,0.2,Calm,Calm,-,N/A,Fog,Fog,0,2011-10-08 05:23:00
10:34 PM,44.6,44.6,100,30.21,0.5,Calm,Calm,-,N/A,Fog,Fog,0,2011-10-08 05:34:00
10:42 PM,42.8,42.8,100,30.21,0.8,Calm,Calm,-,N/A,,Mist,0,2011-10-08 05:42:00
10:44 PM,42.8,42.8,100,30.21,1.2,Calm,Calm,-,N/A,,Clear,0,2011-10-08 05:44:00
10:53 PM,44.1,43.0,96,30.21,0.8,Calm,Calm,-,N/A,,Clear,0,2011-10-08 05:53:00
11:10 PM,42.8,42.8,100,30.22,0.5,Calm,Calm,-,N/A,Fog,Fog,0,2011-10-08 06:10:00
11:21 PM,42.8,42.8,100,30.22,0.8,Calm,Calm,-,N/A,,Mostly Cloudy,0,2011-10-08 06:21:00
11:31 PM,42.8,42.8,100,30.22,1.0,Calm,Calm,-,N/A,,Mostly Cloudy,0,2011-10-08 06:31:00
11:47 PM,42.8,42.8,100,30.22,2.0,Calm,Calm,-,N/A,,Mostly Cloudy,0,2011-10-08 06:47:00
11:53 PM,44.1,43.0,96,30.22,1.8,Calm,Calm,-,N/A,,Mostly Cloudy,0,2011-10-08 06:53:00